sensor_id;sensor_type;location;lat;lon;timestamp;pressure;altitude;pressure_sealevel;temperature;humidity
75740;BME280;64357;51.344;6.550;2022-11-20T00:01:19;100979.81;;;0.80;74.12
75740;BME280;64357;51.344;6.550;2022-11-20T00:03:47;100986.34;;;0.91;73.46
75740;BME280;64357;51.344;6.550;2022-11-20T00:06:17;100989.34;;;0.88;74.28
75740;BME280;64357;51.344;6.550;2022-11-20T00:08:43;100989.19;;;0.99;74.52
75740;BME280;64357;51.344;6.550;2022-11-20T00:11:17;100986.22;;;1.02;74.03
75740;BME280;64357;51.344;6.550;2022-11-20T00:13:46;100989.38;;;1.06;74.38
75740;BME280;64357;51.344;6.550;2022-11-20T00:16:13;100993.50;;;1.06;74.12
75740;BME280;64357;51.344;6.550;2022-11-20T00:18:41;100986.94;;;1.01;74.43
75740;BME280;64357;51.344;6.550;2022-11-20T00:21:12;100997.69;;;1.00;74.35
75740;BME280;64357;51.344;6.550;2022-11-20T00:23:38;100993.81;;;0.96;74.23
75740;BME280;64357;51.344;6.550;2022-11-20T00:26:13;100990.50;;;0.85;73.99
75740;BME280;64357;51.344;6.550;2022-11-20T00:28:39;100993.88;;;0.91;74.25
75740;BME280;64357;51.344;6.550;2022-11-20T00:31:07;100981.28;;;0.72;73.85
75740;BME280;64357;51.344;6.550;2022-11-20T00:33:33;100984.69;;;0.73;74.17
75740;BME280;64357;51.344;6.550;2022-11-20T00:36:10;100987.63;;;0.76;74.85
75740;BME280;64357;51.344;6.550;2022-11-20T00:38:36;100986.41;;;0.85;74.62
75740;BME280;64357;51.344;6.550;2022-11-20T00:41:08;100989.25;;;0.94;73.97
75740;BME280;64357;51.344;6.550;2022-11-20T00:43:34;100981.22;;;0.78;74.18
75740;BME280;64357;51.344;6.550;2022-11-20T00:46:02;100978.41;;;0.82;74.97
75740;BME280;64357;51.344;6.550;2022-11-20T00:48:30;100967.78;;;0.72;74.89
75740;BME280;64357;51.344;6.550;2022-11-20T00:50:55;100971.00;;;0.71;74.94
75740;BME280;64357;51.344;6.550;2022-11-20T00:53:22;100975.91;;;0.58;75.88
75740;BME280;64357;51.344;6.550;2022-11-20T00:55:59;100964.38;;;0.47;76.12
75740;BME280;64357;51.344;6.550;2022-11-20T00:58:28;100967.00;;;0.60;76.20
75740;BME280;64357;51.344;6.550;2022-11-20T01:01:00;100967.66;;;0.65;76.18
75740;BME280;64357;51.344;6.550;2022-11-20T01:03:33;100964.44;;;0.66;75.08
75740;BME280;64357;51.344;6.550;2022-11-20T01:06:04;100958.50;;;0.65;75.66
75740;BME280;64357;51.344;6.550;2022-11-20T01:08:31;100953.66;;;0.67;76.24
75740;BME280;64357;51.344;6.550;2022-11-20T01:11:01;100948.19;;;0.64;75.12
75740;BME280;64357;51.344;6.550;2022-11-20T01:13:30;100951.16;;;0.67;75.42
75740;BME280;64357;51.344;6.550;2022-11-20T01:16:05;100951.06;;;0.54;75.88
75740;BME280;64357;51.344;6.550;2022-11-20T01:18:31;100963.84;;;0.56;76.41
75740;BME280;64357;51.344;6.550;2022-11-20T01:21:03;100963.19;;;0.51;76.48
75740;BME280;64357;51.344;6.550;2022-11-20T01:23:37;100957.59;;;0.65;76.29
75740;BME280;64357;51.344;6.550;2022-11-20T01:26:05;100962.88;;;0.61;76.35
75740;BME280;64357;51.344;6.550;2022-11-20T01:28:33;100956.19;;;0.67;75.81
75740;BME280;64357;51.344;6.550;2022-11-20T01:31:03;100952.56;;;0.65;76.01
75740;BME280;64357;51.344;6.550;2022-11-20T01:33:39;100956.59;;;0.70;76.36
75740;BME280;64357;51.344;6.550;2022-11-20T01:36:05;100951.81;;;0.71;76.28
75740;BME280;64357;51.344;6.550;2022-11-20T01:38:31;100946.47;;;0.75;75.78
75740;BME280;64357;51.344;6.550;2022-11-20T01:40:56;100948.66;;;0.67;76.16
75740;BME280;64357;51.344;6.550;2022-11-20T01:43:22;100933.91;;;0.75;75.73
75740;BME280;64357;51.344;6.550;2022-11-20T01:48:15;100944.09;;;0.64;76.30
75740;BME280;64357;51.344;6.550;2022-11-20T01:50:42;100947.88;;;0.73;76.13
75740;BME280;64357;51.344;6.550;2022-11-20T01:53:11;100942.84;;;0.73;75.92
75740;BME280;64357;51.344;6.550;2022-11-20T01:55:46;100938.41;;;0.84;75.84
75740;BME280;64357;51.344;6.550;2022-11-20T01:58:14;100935.66;;;0.82;75.51
75740;BME280;64357;51.344;6.550;2022-11-20T02:00:40;100943.50;;;0.78;75.38
75740;BME280;64357;51.344;6.550;2022-11-20T02:03:12;100934.34;;;0.78;75.71
75740;BME280;64357;51.344;6.550;2022-11-20T02:05:45;100937.63;;;0.72;76.36
75740;BME280;64357;51.344;6.550;2022-11-20T02:08:15;100944.94;;;0.70;75.73
75740;BME280;64357;51.344;6.550;2022-11-20T02:10:40;100942.34;;;0.76;76.69
75740;BME280;64357;51.344;6.550;2022-11-20T02:13:08;100937.28;;;0.82;76.54
75740;BME280;64357;51.344;6.550;2022-11-20T02:15:53;100936.81;;;0.84;76.50
75740;BME280;64357;51.344;6.550;2022-11-20T02:18:20;100934.22;;;0.90;75.45
75740;BME280;64357;51.344;6.550;2022-11-20T02:20:48;100926.69;;;0.90;75.98
75740;BME280;64357;51.344;6.550;2022-11-20T02:23:36;100929.66;;;0.87;75.51
75740;BME280;64357;51.344;6.550;2022-11-20T02:26:07;100924.69;;;0.82;76.02
75740;BME280;64357;51.344;6.550;2022-11-20T02:28:36;100922.88;;;0.80;76.08
75740;BME280;64357;51.344;6.550;2022-11-20T02:31:02;100916.31;;;0.75;75.83
75740;BME280;64357;51.344;6.550;2022-11-20T02:33:27;100917.91;;;0.75;76.13
75740;BME280;64357;51.344;6.550;2022-11-20T02:35:53;100912.03;;;0.69;76.61
75740;BME280;64357;51.344;6.550;2022-11-20T02:38:18;100915.13;;;0.61;76.72
75740;BME280;64357;51.344;6.550;2022-11-20T02:40:44;100907.69;;;0.49;77.39
75740;BME280;64357;51.344;6.550;2022-11-20T02:43:10;100905.03;;;0.42;77.87
75740;BME280;64357;51.344;6.550;2022-11-20T02:45:35;100907.25;;;0.46;77.82
75740;BME280;64357;51.344;6.550;2022-11-20T02:48:03;100906.34;;;0.46;77.94
75740;BME280;64357;51.344;6.550;2022-11-20T02:50:28;100903.47;;;0.37;78.48
75740;BME280;64357;51.344;6.550;2022-11-20T02:52:54;100905.59;;;0.29;78.71
75740;BME280;64357;51.344;6.550;2022-11-20T02:55:19;100908.84;;;0.22;79.20
75740;BME280;64357;51.344;6.550;2022-11-20T02:57:44;100910.09;;;0.13;79.46
75740;BME280;64357;51.344;6.550;2022-11-20T03:00:12;100912.38;;;0.11;79.95
75740;BME280;64357;51.344;6.550;2022-11-20T03:02:40;100911.00;;;0.13;80.59
75740;BME280;64357;51.344;6.550;2022-11-20T03:05:08;100910.56;;;0.10;80.60
75740;BME280;64357;51.344;6.550;2022-11-20T03:07:33;100905.53;;;0.10;80.23
75740;BME280;64357;51.344;6.550;2022-11-20T03:09:58;100910.34;;;0.09;80.13
75740;BME280;64357;51.344;6.550;2022-11-20T03:12:24;100906.78;;;0.01;80.64
75740;BME280;64357;51.344;6.550;2022-11-20T03:14:49;100909.31;;;-0.05;80.50
75740;BME280;64357;51.344;6.550;2022-11-20T03:17:16;100895.94;;;-0.16;81.24
75740;BME280;64357;51.344;6.550;2022-11-20T03:19:43;100908.75;;;-0.20;81.06
75740;BME280;64357;51.344;6.550;2022-11-20T03:22:08;100924.00;;;-0.19;82.59
75740;BME280;64357;51.344;6.550;2022-11-20T03:24:34;100928.13;;;-0.19;81.62
75740;BME280;64357;51.344;6.550;2022-11-20T03:26:59;100926.19;;;-0.04;80.85
75740;BME280;64357;51.344;6.550;2022-11-20T03:29:27;100923.84;;;0.04;80.45
75740;BME280;64357;51.344;6.550;2022-11-20T03:31:52;100922.38;;;0.17;80.43
75740;BME280;64357;51.344;6.550;2022-11-20T03:34:17;100925.13;;;0.18;80.63
75740;BME280;64357;51.344;6.550;2022-11-20T03:36:47;100916.69;;;0.18;79.76
75740;BME280;64357;51.344;6.550;2022-11-20T03:39:12;100911.78;;;0.01;80.75
75740;BME280;64357;51.344;6.550;2022-11-20T03:41:40;100913.09;;;0.05;81.88
75740;BME280;64357;51.344;6.550;2022-11-20T03:44:07;100918.59;;;0.08;81.02
75740;BME280;64357;51.344;6.550;2022-11-20T03:46:33;100916.22;;;0.15;80.77
75740;BME280;64357;51.344;6.550;2022-11-20T03:49:02;100916.47;;;0.11;81.42
75740;BME280;64357;51.344;6.550;2022-11-20T03:51:30;100922.94;;;0.03;81.06
75740;BME280;64357;51.344;6.550;2022-11-20T03:53:58;100915.94;;;-0.05;81.73
75740;BME280;64357;51.344;6.550;2022-11-20T03:56:31;100924.38;;;-0.05;81.69
75740;BME280;64357;51.344;6.550;2022-11-20T03:58:57;100921.06;;;-0.16;81.65
75740;BME280;64357;51.344;6.550;2022-11-20T04:01:25;100910.22;;;-0.04;81.15
75740;BME280;64357;51.344;6.550;2022-11-20T04:03:53;100901.72;;;0.31;80.30
75740;BME280;64357;51.344;6.550;2022-11-20T04:06:24;100906.34;;;0.46;79.38
75740;BME280;64357;51.344;6.550;2022-11-20T04:08:50;100905.63;;;0.23;80.04
75740;BME280;64357;51.344;6.550;2022-11-20T04:11:18;100904.22;;;0.31;80.49
75740;BME280;64357;51.344;6.550;2022-11-20T04:13:49;100895.84;;;0.24;80.99
75740;BME280;64357;51.344;6.550;2022-11-20T04:16:15;100894.78;;;0.11;81.44
75740;BME280;64357;51.344;6.550;2022-11-20T04:18:41;100886.75;;;0.19;81.24
75740;BME280;64357;51.344;6.550;2022-11-20T04:21:09;100892.97;;;0.34;81.69
75740;BME280;64357;51.344;6.550;2022-11-20T04:23:35;100889.94;;;0.42;81.06
75740;BME280;64357;51.344;6.550;2022-11-20T04:26:09;100887.09;;;0.28;81.09
75740;BME280;64357;51.344;6.550;2022-11-20T04:28:35;100897.63;;;0.49;80.68
75740;BME280;64357;51.344;6.550;2022-11-20T04:33:30;100881.25;;;0.40;80.67
75740;BME280;64357;51.344;6.550;2022-11-20T04:36:00;100895.47;;;0.58;79.71
75740;BME280;64357;51.344;6.550;2022-11-20T04:38:26;100902.16;;;0.52;80.45
75740;BME280;64357;51.344;6.550;2022-11-20T04:40:56;100894.25;;;0.67;79.78
75740;BME280;64357;51.344;6.550;2022-11-20T04:43:21;100890.97;;;0.92;78.56
75740;BME280;64357;51.344;6.550;2022-11-20T04:45:51;100881.28;;;1.01;78.94
75740;BME280;64357;51.344;6.550;2022-11-20T04:48:16;100877.78;;;1.06;78.73
75740;BME280;64357;51.344;6.550;2022-11-20T04:50:41;100887.63;;;1.04;78.22
75740;BME280;64357;51.344;6.550;2022-11-20T04:53:07;100883.72;;;1.25;77.73
75740;BME280;64357;51.344;6.550;2022-11-20T04:55:32;100884.34;;;1.29;77.44
75740;BME280;64357;51.344;6.550;2022-11-20T04:57:57;100877.69;;;1.30;77.53
75740;BME280;64357;51.344;6.550;2022-11-20T05:00:27;100887.78;;;1.30;78.10
75740;BME280;64357;51.344;6.550;2022-11-20T05:02:55;100886.66;;;1.10;78.97
75740;BME280;64357;51.344;6.550;2022-11-20T05:05:20;100885.53;;;1.08;79.26
75740;BME280;64357;51.344;6.550;2022-11-20T05:07:45;100882.31;;;1.09;79.05
75740;BME280;64357;51.344;6.550;2022-11-20T05:10:11;100886.00;;;1.05;78.82
75740;BME280;64357;51.344;6.550;2022-11-20T05:12:38;100877.78;;;1.06;79.13
75740;BME280;64357;51.344;6.550;2022-11-20T05:15:04;100887.22;;;1.01;79.28
75740;BME280;64357;51.344;6.550;2022-11-20T05:17:30;100877.84;;;0.82;78.97
75740;BME280;64357;51.344;6.550;2022-11-20T05:19:57;100886.78;;;0.80;79.79
75740;BME280;64357;51.344;6.550;2022-11-20T05:22:23;100879.25;;;0.80;79.88
75740;BME280;64357;51.344;6.550;2022-11-20T05:24:50;100884.53;;;0.76;80.28
75740;BME280;64357;51.344;6.550;2022-11-20T05:27:16;100872.97;;;0.71;80.15
75740;BME280;64357;51.344;6.550;2022-11-20T05:29:41;100884.13;;;0.73;80.52
75740;BME280;64357;51.344;6.550;2022-11-20T05:32:07;100876.16;;;0.70;80.14
75740;BME280;64357;51.344;6.550;2022-11-20T05:34:35;100866.66;;;0.62;80.79
75740;BME280;64357;51.344;6.550;2022-11-20T05:37:00;100883.50;;;0.68;80.60
75740;BME280;64357;51.344;6.550;2022-11-20T05:39:27;100879.81;;;0.72;80.91
75740;BME280;64357;51.344;6.550;2022-11-20T05:41:58;100870.47;;;0.89;79.93
75740;BME280;64357;51.344;6.550;2022-11-20T05:44:42;100880.78;;;0.85;80.23
75740;BME280;64357;51.344;6.550;2022-11-20T05:47:07;100874.06;;;0.91;80.50
75740;BME280;64357;51.344;6.550;2022-11-20T05:49:33;100883.22;;;0.91;80.22
75740;BME280;64357;51.344;6.550;2022-11-20T05:51:58;100870.44;;;1.08;79.71
75740;BME280;64357;51.344;6.550;2022-11-20T05:54:23;100873.44;;;1.05;79.23
75740;BME280;64357;51.344;6.550;2022-11-20T05:56:49;100871.44;;;1.02;79.52
75740;BME280;64357;51.344;6.550;2022-11-20T05:59:14;100871.28;;;0.95;79.54
75740;BME280;64357;51.344;6.550;2022-11-20T06:01:42;100860.31;;;0.95;79.83
75740;BME280;64357;51.344;6.550;2022-11-20T06:04:09;100863.88;;;1.02;79.55
75740;BME280;64357;51.344;6.550;2022-11-20T06:06:35;100865.19;;;0.88;80.06
75740;BME280;64357;51.344;6.550;2022-11-20T06:09:00;100874.16;;;0.86;80.87
75740;BME280;64357;51.344;6.550;2022-11-20T06:11:25;100851.03;;;1.06;79.48
75740;BME280;64357;51.344;6.550;2022-11-20T06:13:51;100859.94;;;1.23;79.45
75740;BME280;64357;51.344;6.550;2022-11-20T06:16:18;100859.09;;;1.35;79.21
75740;BME280;64357;51.344;6.550;2022-11-20T06:18:45;100854.59;;;1.45;78.69
75740;BME280;64357;51.344;6.550;2022-11-20T06:23:36;100867.09;;;1.51;78.36
75740;BME280;64357;51.344;6.550;2022-11-20T06:26:07;100862.13;;;1.45;78.47
75740;BME280;64357;51.344;6.550;2022-11-20T06:28:33;100879.50;;;1.62;78.63
75740;BME280;64357;51.344;6.550;2022-11-20T06:30:59;100863.94;;;1.65;78.16
75740;BME280;64357;51.344;6.550;2022-11-20T06:33:27;100877.53;;;1.72;78.10
75740;BME280;64357;51.344;6.550;2022-11-20T06:35:59;100867.94;;;1.70;78.43
75740;BME280;64357;51.344;6.550;2022-11-20T06:38:28;100874.41;;;1.80;78.18
75740;BME280;64357;51.344;6.550;2022-11-20T06:40:54;100874.66;;;1.82;77.91
75740;BME280;64357;51.344;6.550;2022-11-20T06:43:20;100868.00;;;1.82;78.26
75740;BME280;64357;51.344;6.550;2022-11-20T06:45:45;100870.19;;;1.74;78.61
75740;BME280;64357;51.344;6.550;2022-11-20T06:48:10;100881.16;;;1.87;78.25
75740;BME280;64357;51.344;6.550;2022-11-20T06:50:37;100875.19;;;1.61;79.41
75740;BME280;64357;51.344;6.550;2022-11-20T06:53:03;100884.06;;;1.65;79.55
75740;BME280;64357;51.344;6.550;2022-11-20T06:55:30;100883.38;;;1.66;79.84
75740;BME280;64357;51.344;6.550;2022-11-20T06:57:58;100890.16;;;1.85;79.20
75740;BME280;64357;51.344;6.550;2022-11-20T07:00:23;100880.88;;;1.91;79.14
75740;BME280;64357;51.344;6.550;2022-11-20T07:02:49;100876.13;;;1.87;78.84
75740;BME280;64357;51.344;6.550;2022-11-20T07:05:17;100891.75;;;1.84;79.09
75740;BME280;64357;51.344;6.550;2022-11-20T07:07:43;100892.13;;;1.75;79.52
75740;BME280;64357;51.344;6.550;2022-11-20T07:10:08;100907.09;;;1.55;80.37
75740;BME280;64357;51.344;6.550;2022-11-20T07:12:36;100905.16;;;1.47;80.49
75740;BME280;64357;51.344;6.550;2022-11-20T07:15:02;100903.13;;;1.44;80.65
75740;BME280;64357;51.344;6.550;2022-11-20T07:17:27;100909.09;;;1.57;80.64
75740;BME280;64357;51.344;6.550;2022-11-20T07:19:55;100902.50;;;1.71;80.50
75740;BME280;64357;51.344;6.550;2022-11-20T07:22:21;100910.91;;;1.77;80.26
75740;BME280;64357;51.344;6.550;2022-11-20T07:24:47;100907.31;;;1.69;80.29
75740;BME280;64357;51.344;6.550;2022-11-20T07:27:12;100908.13;;;1.63;80.66
75740;BME280;64357;51.344;6.550;2022-11-20T07:29:40;100898.19;;;1.51;81.70
75740;BME280;64357;51.344;6.550;2022-11-20T07:32:06;100899.22;;;1.77;81.29
75740;BME280;64357;51.344;6.550;2022-11-20T07:34:31;100893.47;;;1.78;80.89
75740;BME280;64357;51.344;6.550;2022-11-20T07:36:56;100890.97;;;1.91;81.08
75740;BME280;64357;51.344;6.550;2022-11-20T07:39:24;100894.81;;;1.95;79.67
75740;BME280;64357;51.344;6.550;2022-11-20T07:41:51;100884.56;;;2.06;79.25
75740;BME280;64357;51.344;6.550;2022-11-20T07:44:19;100883.03;;;2.13;78.56
75740;BME280;64357;51.344;6.550;2022-11-20T07:46:53;100881.81;;;2.04;78.91
75740;BME280;64357;51.344;6.550;2022-11-20T07:49:18;100886.16;;;2.05;79.78
75740;BME280;64357;51.344;6.550;2022-11-20T07:51:50;100875.47;;;1.88;79.83
75740;BME280;64357;51.344;6.550;2022-11-20T07:54:16;100873.66;;;2.00;79.18
75740;BME280;64357;51.344;6.550;2022-11-20T07:56:41;100868.22;;;2.09;79.29
75740;BME280;64357;51.344;6.550;2022-11-20T07:59:09;100872.75;;;2.25;78.03
75740;BME280;64357;51.344;6.550;2022-11-20T08:01:39;100867.31;;;2.22;77.65
75740;BME280;64357;51.344;6.550;2022-11-20T08:04:05;100865.88;;;2.11;79.03
75740;BME280;64357;51.344;6.550;2022-11-20T08:06:35;100863.34;;;1.98;79.64
75740;BME280;64357;51.344;6.550;2022-11-20T08:09:00;100863.69;;;1.94;80.11
75740;BME280;64357;51.344;6.550;2022-11-20T08:11:25;100867.47;;;1.85;80.38
75740;BME280;64357;51.344;6.550;2022-11-20T08:14:09;100867.19;;;1.89;80.70
75740;BME280;64357;51.344;6.550;2022-11-20T08:16:42;100862.97;;;2.21;79.77
75740;BME280;64357;51.344;6.550;2022-11-20T08:19:15;100862.50;;;2.23;79.35
75740;BME280;64357;51.344;6.550;2022-11-20T08:21:41;100869.03;;;2.41;78.56
75740;BME280;64357;51.344;6.550;2022-11-20T08:24:09;100867.22;;;2.53;78.34
75740;BME280;64357;51.344;6.550;2022-11-20T08:26:36;100865.38;;;2.64;77.72
75740;BME280;64357;51.344;6.550;2022-11-20T08:29:02;100873.34;;;2.55;77.78
75740;BME280;64357;51.344;6.550;2022-11-20T08:31:31;100872.84;;;2.57;78.24
75740;BME280;64357;51.344;6.550;2022-11-20T08:33:57;100865.09;;;2.30;79.72
75740;BME280;64357;51.344;6.550;2022-11-20T08:36:25;100858.03;;;2.28;79.86
75740;BME280;64357;51.344;6.550;2022-11-20T08:38:52;100869.34;;;2.37;79.97
75740;BME280;64357;51.344;6.550;2022-11-20T08:41:18;100868.94;;;2.47;79.35
75740;BME280;64357;51.344;6.550;2022-11-20T08:43:58;100873.84;;;2.78;77.95
75740;BME280;64357;51.344;6.550;2022-11-20T08:46:31;100886.56;;;3.05;77.03
75740;BME280;64357;51.344;6.550;2022-11-20T08:48:58;100889.50;;;3.08;77.36
75740;BME280;64357;51.344;6.550;2022-11-20T08:51:23;100885.97;;;3.13;76.73
75740;BME280;64357;51.344;6.550;2022-11-20T08:53:51;100887.84;;;2.88;77.09
75740;BME280;64357;51.344;6.550;2022-11-20T08:56:21;100883.06;;;2.97;77.27
75740;BME280;64357;51.344;6.550;2022-11-20T08:58:46;100882.47;;;3.25;76.52
75740;BME280;64357;51.344;6.550;2022-11-20T09:01:14;100880.94;;;3.33;76.58
75740;BME280;64357;51.344;6.550;2022-11-20T09:03:39;100882.00;;;3.15;76.16
75740;BME280;64357;51.344;6.550;2022-11-20T09:06:10;100880.25;;;3.01;76.53
75740;BME280;64357;51.344;6.550;2022-11-20T09:08:35;100875.88;;;3.13;76.81
75740;BME280;64357;51.344;6.550;2022-11-20T09:11:02;100867.69;;;3.08;77.26
75740;BME280;64357;51.344;6.550;2022-11-20T09:13:28;100867.69;;;3.08;76.87
75740;BME280;64357;51.344;6.550;2022-11-20T09:16:05;100860.97;;;3.21;76.39
75740;BME280;64357;51.344;6.550;2022-11-20T09:18:34;100858.66;;;3.63;75.29
75740;BME280;64357;51.344;6.550;2022-11-20T09:21:10;100859.50;;;3.76;75.33
75740;BME280;64357;51.344;6.550;2022-11-20T09:23:36;100860.91;;;3.74;74.98
75740;BME280;64357;51.344;6.550;2022-11-20T09:26:15;100850.91;;;3.81;75.16
75740;BME280;64357;51.344;6.550;2022-11-20T09:28:41;100851.53;;;3.93;74.08
75740;BME280;64357;51.344;6.550;2022-11-20T09:31:22;100847.75;;;3.96;73.81
75740;BME280;64357;51.344;6.550;2022-11-20T09:33:48;100837.03;;;3.65;75.29
75740;BME280;64357;51.344;6.550;2022-11-20T09:36:17;100847.69;;;3.89;74.94
75740;BME280;64357;51.344;6.550;2022-11-20T09:38:47;100837.03;;;4.12;74.51
75740;BME280;64357;51.344;6.550;2022-11-20T09:44:55;100845.53;;;4.46;74.35
75740;BME280;64357;51.344;6.550;2022-11-20T09:55:43;100849.97;;;4.08;76.27
75740;BME280;64357;51.344;6.550;2022-11-20T09:58:17;100847.78;;;4.04;76.48
75740;BME280;64357;51.344;6.550;2022-11-20T10:00:48;100846.41;;;4.13;76.43
75740;BME280;64357;51.344;6.550;2022-11-20T10:03:16;100843.81;;;4.33;75.83
75740;BME280;64357;51.344;6.550;2022-11-20T10:05:51;100831.75;;;4.44;75.84
75740;BME280;64357;51.344;6.550;2022-11-20T10:10:54;100830.34;;;4.46;76.26
75740;BME280;64357;51.344;6.550;2022-11-20T10:19:41;100823.94;;;4.28;77.02
75740;BME280;64357;51.344;6.550;2022-11-20T10:30:02;100793.06;;;3.50;79.95
75740;BME280;64357;51.344;6.550;2022-11-20T10:32:34;100793.75;;;3.69;80.63
75740;BME280;64357;51.344;6.550;2022-11-20T10:35:20;100784.75;;;3.98;79.27
75740;BME280;64357;51.344;6.550;2022-11-20T10:37:55;100793.31;;;4.13;78.80
75740;BME280;64357;51.344;6.550;2022-11-20T10:40:53;100795.69;;;4.11;79.14
75740;BME280;64357;51.344;6.550;2022-11-20T10:43:39;100787.94;;;3.63;80.97
75740;BME280;64357;51.344;6.550;2022-11-20T10:46:18;100797.00;;;3.68;81.01
75740;BME280;64357;51.344;6.550;2022-11-20T10:48:47;100789.97;;;3.65;81.16
75740;BME280;64357;51.344;6.550;2022-11-20T10:56:45;100770.13;;;3.68;81.88
75740;BME280;64357;51.344;6.550;2022-11-20T10:59:48;100772.47;;;3.67;81.84
75740;BME280;64357;51.344;6.550;2022-11-20T11:03:01;100759.00;;;3.81;81.80
75740;BME280;64357;51.344;6.550;2022-11-20T11:05:22;100755.03;;;3.76;81.64
75740;BME280;64357;51.344;6.550;2022-11-20T11:07:54;100751.34;;;3.66;82.08
75740;BME280;64357;51.344;6.550;2022-11-20T11:10:31;100743.22;;;3.69;82.19
75740;BME280;64357;51.344;6.550;2022-11-20T11:13:01;100735.31;;;3.73;81.94
75740;BME280;64357;51.344;6.550;2022-11-20T11:15:40;100742.88;;;3.93;81.86
75740;BME280;64357;51.344;6.550;2022-11-20T11:18:32;100727.50;;;3.91;81.75
75740;BME280;64357;51.344;6.550;2022-11-20T11:21:03;100726.44;;;3.96;80.92
75740;BME280;64357;51.344;6.550;2022-11-20T11:23:40;100709.78;;;3.84;81.45
75740;BME280;64357;51.344;6.550;2022-11-20T11:26:23;100692.97;;;3.85;81.87
75740;BME280;64357;51.344;6.550;2022-11-20T11:29:03;100707.13;;;3.97;81.54
75740;BME280;64357;51.344;6.550;2022-11-20T11:31:29;100700.25;;;3.96;81.28
75740;BME280;64357;51.344;6.550;2022-11-20T11:36:32;100693.00;;;3.92;81.27
75740;BME280;64357;51.344;6.550;2022-11-20T11:38:58;100681.69;;;4.03;81.28
75740;BME280;64357;51.344;6.550;2022-11-20T11:41:28;100678.25;;;4.02;81.61
75740;BME280;64357;51.344;6.550;2022-11-20T11:44:03;100677.19;;;4.00;81.55
75740;BME280;64357;51.344;6.550;2022-11-20T11:46:57;100668.16;;;4.02;81.64
75740;BME280;64357;51.344;6.550;2022-11-20T11:49:23;100669.38;;;3.98;81.18
75740;BME280;64357;51.344;6.550;2022-11-20T11:52:05;100673.84;;;3.87;81.35
75740;BME280;64357;51.344;6.550;2022-11-20T11:54:38;100668.69;;;3.99;81.79
75740;BME280;64357;51.344;6.550;2022-11-20T11:57:14;100665.63;;;4.02;81.08
75740;BME280;64357;51.344;6.550;2022-11-20T11:59:51;100662.53;;;3.97;80.85
75740;BME280;64357;51.344;6.550;2022-11-20T12:02:32;100649.75;;;4.10;80.83
75740;BME280;64357;51.344;6.550;2022-11-20T12:05:27;100645.06;;;4.06;80.77
75740;BME280;64357;51.344;6.550;2022-11-20T12:15:57;100624.16;;;4.21;80.16
75740;BME280;64357;51.344;6.550;2022-11-20T12:18:23;100627.41;;;4.27;80.46
75740;BME280;64357;51.344;6.550;2022-11-20T12:26:27;100624.94;;;4.42;80.49
75740;BME280;64357;51.344;6.550;2022-11-20T12:34:44;100621.13;;;4.38;80.58
75740;BME280;64357;51.344;6.550;2022-11-20T12:37:33;100615.50;;;4.34;80.74
75740;BME280;64357;51.344;6.550;2022-11-20T12:43:28;100611.91;;;4.39;80.78
75740;BME280;64357;51.344;6.550;2022-11-20T12:57:00;100577.78;;;4.35;83.13
75740;BME280;64357;51.344;6.550;2022-11-20T13:02:30;100567.50;;;4.41;83.33
75740;BME280;64357;51.344;6.550;2022-11-20T13:07:24;100553.91;;;4.33;83.23
75740;BME280;64357;51.344;6.550;2022-11-20T13:09:51;100555.75;;;4.41;83.06
75740;BME280;64357;51.344;6.550;2022-11-20T13:12:33;100547.06;;;4.39;83.56
75740;BME280;64357;51.344;6.550;2022-11-20T13:15:31;100535.31;;;4.75;83.18
75740;BME280;64357;51.344;6.550;2022-11-20T13:18:01;100531.53;;;4.65;83.58
75740;BME280;64357;51.344;6.550;2022-11-20T13:20:31;100533.34;;;4.59;82.79
75740;BME280;64357;51.344;6.550;2022-11-20T13:23:00;100518.19;;;4.59;83.33
75740;BME280;64357;51.344;6.550;2022-11-20T13:25:33;100525.56;;;4.57;83.50
75740;BME280;64357;51.344;6.550;2022-11-20T13:30:51;100520.66;;;4.80;85.26
75740;BME280;64357;51.344;6.550;2022-11-20T13:33:28;100520.66;;;4.87;83.33
75740;BME280;64357;51.344;6.550;2022-11-20T13:35:58;100512.09;;;5.08;82.00
75740;BME280;64357;51.344;6.550;2022-11-20T13:38:24;100512.31;;;4.95;83.15
75740;BME280;64357;51.344;6.550;2022-11-20T13:40:58;100511.44;;;4.73;83.55
75740;BME280;64357;51.344;6.550;2022-11-20T13:43:37;100509.47;;;4.71;84.28
75740;BME280;64357;51.344;6.550;2022-11-20T13:46:09;100497.34;;;4.90;84.48
75740;BME280;64357;51.344;6.550;2022-11-20T13:48:45;100493.41;;;4.70;85.08
75740;BME280;64357;51.344;6.550;2022-11-20T13:54:22;100476.44;;;4.69;85.30
75740;BME280;64357;51.344;6.550;2022-11-20T13:59:36;100469.53;;;4.75;84.18
75740;BME280;64357;51.344;6.550;2022-11-20T14:02:11;100453.47;;;4.75;83.97
75740;BME280;64357;51.344;6.550;2022-11-20T14:04:42;100456.53;;;4.72;84.17
75740;BME280;64357;51.344;6.550;2022-11-20T14:07:09;100448.56;;;4.76;85.07
75740;BME280;64357;51.344;6.550;2022-11-20T14:09:35;100434.97;;;4.90;84.88
75740;BME280;64357;51.344;6.550;2022-11-20T14:12:01;100436.16;;;5.08;85.33
75740;BME280;64357;51.344;6.550;2022-11-20T14:14:29;100431.06;;;5.22;82.94
75740;BME280;64357;51.344;6.550;2022-11-20T14:17:16;100422.75;;;5.16;83.57
75740;BME280;64357;51.344;6.550;2022-11-20T14:19:45;100418.88;;;5.34;83.24
75740;BME280;64357;51.344;6.550;2022-11-20T14:24:48;100408.16;;;5.37;82.82
75740;BME280;64357;51.344;6.550;2022-11-20T14:27:17;100405.91;;;5.24;82.92
75740;BME280;64357;51.344;6.550;2022-11-20T14:29:47;100402.22;;;4.92;84.60
75740;BME280;64357;51.344;6.550;2022-11-20T14:32:19;100394.69;;;4.77;85.15
75740;BME280;64357;51.344;6.550;2022-11-20T14:34:47;100386.53;;;4.80;85.14
75740;BME280;64357;51.344;6.550;2022-11-20T14:37:19;100397.19;;;4.85;84.93
75740;BME280;64357;51.344;6.550;2022-11-20T14:39:51;100386.75;;;4.81;85.07
75740;BME280;64357;51.344;6.550;2022-11-20T14:42:35;100385.09;;;4.89;85.37
75740;BME280;64357;51.344;6.550;2022-11-20T14:45:02;100381.97;;;4.92;85.50
75740;BME280;64357;51.344;6.550;2022-11-20T14:47:29;100368.63;;;4.86;85.86